createdAt,value
2024-01-16T11:37:52.361Z,26.28
2024-01-16T11:40:23.403Z,24.94
2024-01-16T11:50:35.771Z,24.37
2024-01-16T11:53:04.144Z,24.45
2024-01-16T11:56:01.407Z,24.49
2024-01-16T11:58:39.173Z,24.39
2024-01-16T12:01:07.479Z,24.21
2024-01-16T12:03:35.943Z,24.34
2024-01-16T12:06:10.862Z,24.53
2024-01-16T12:08:39.008Z,24.49
2024-01-16T12:11:07.004Z,24.47
2024-01-16T12:13:34.774Z,24.59
2024-01-16T12:16:06.308Z,24.58
2024-01-16T12:18:41.385Z,24.72
2024-01-16T12:21:13.183Z,24.70
2024-01-16T12:23:47.067Z,24.99
2024-01-16T12:34:09.584Z,25.30
2024-01-16T12:36:38.967Z,25.26
2024-01-16T12:39:07.045Z,25.37
2024-01-16T12:41:42.317Z,25.40
2024-01-16T12:44:16.215Z,25.41
2024-01-16T12:46:54.966Z,25.24
2024-01-16T12:49:24.490Z,25.39
2024-01-16T12:52:22.480Z,25.26
2024-01-16T12:55:10.241Z,25.03
2024-01-16T12:57:38.575Z,24.98
2024-01-16T13:00:26.946Z,25.31
2024-01-16T13:02:57.125Z,25.50
2024-01-16T13:05:26.950Z,25.71
2024-01-16T13:08:04.702Z,25.83
2024-01-16T13:13:21.100Z,26.35
2024-01-16T13:15:49.068Z,26.55
2024-01-16T13:18:24.263Z,26.59
2024-01-16T13:20:56.182Z,26.63
2024-01-16T13:23:26.385Z,26.51
2024-01-16T13:25:57.050Z,26.41
2024-01-16T13:28:26.693Z,26.53
2024-01-16T13:30:54.658Z,26.80
2024-01-16T13:33:24.617Z,26.49
2024-01-16T13:35:53.506Z,26.66
2024-01-16T13:38:21.434Z,26.49
2024-01-16T13:40:51.529Z,26.48
2024-01-16T13:43:19.948Z,26.42
2024-01-16T13:45:51.005Z,26.27
2024-01-16T13:48:19.401Z,26.46
2024-01-16T13:50:49.044Z,26.50
2024-01-16T13:53:17.337Z,26.56
2024-01-16T13:55:45.957Z,26.55
2024-01-16T13:58:14.067Z,26.40
2024-01-16T14:00:42.047Z,26.51
2024-01-16T14:03:10.159Z,26.19
2024-01-16T14:05:38.297Z,26.40
2024-01-16T14:08:07.017Z,26.51
2024-01-16T14:10:34.739Z,26.44
2024-01-16T14:13:02.462Z,26.67
2024-01-16T14:15:30.504Z,26.53
2024-01-16T14:17:59.687Z,26.49
2024-01-16T14:20:28.896Z,26.53
2024-01-16T14:22:57.679Z,26.73
2024-01-16T14:25:26.265Z,26.73
2024-01-16T14:28:01.813Z,26.71
2024-01-16T14:30:31.020Z,26.80
2024-01-16T14:32:59.080Z,26.68
2024-01-16T14:35:27.050Z,26.77
2024-01-16T14:37:55.238Z,26.81
2024-01-16T14:40:26.882Z,26.79
2024-01-16T14:42:55.793Z,27.01
2024-01-16T14:45:24.850Z,26.84
2024-01-16T14:47:54.945Z,27.39
2024-01-16T14:50:23.634Z,27.19
2024-01-16T14:52:53.070Z,26.93
2024-01-16T14:55:24.172Z,27.29
2024-01-16T14:57:54.596Z,27.18
2024-01-16T15:00:25.592Z,27.05
2024-01-16T15:02:54.734Z,27.53
2024-01-16T15:05:23.446Z,27.39
2024-01-16T15:07:53.426Z,27.43
2024-01-16T15:10:22.052Z,27.59
2024-01-16T15:12:50.180Z,27.29
2024-01-16T15:15:18.117Z,27.76
2024-01-16T15:18:05.920Z,27.43
2024-01-16T15:20:33.693Z,27.57
2024-01-16T15:23:01.545Z,27.55
2024-01-16T15:25:29.476Z,27.36
2024-01-16T15:27:57.954Z,27.39
2024-01-16T15:30:32.852Z,27.46
2024-01-16T15:33:00.930Z,27.55
2024-01-16T15:35:28.827Z,27.48
2024-01-16T15:37:56.689Z,27.73
2024-01-16T15:40:24.775Z,27.59
2024-01-16T15:42:52.730Z,27.53
2024-01-16T15:45:21.319Z,27.47
2024-01-16T15:47:50.179Z,27.58
2024-01-16T15:50:19.010Z,27.65
2024-01-16T15:52:47.717Z,27.61
2024-01-16T15:55:16.086Z,27.69
2024-01-16T15:57:45.450Z,27.69
2024-01-16T16:07:55.272Z,27.56
2024-01-16T16:10:23.551Z,27.39
2024-01-16T16:12:51.740Z,27.46
2024-01-16T16:15:19.801Z,27.48
2024-01-16T16:17:48.089Z,27.53
2024-01-16T16:20:16.105Z,27.49
2024-01-16T16:22:46.650Z,27.67
2024-01-16T16:25:16.012Z,27.59
2024-01-16T16:27:45.503Z,27.82
2024-01-16T16:30:13.889Z,27.68
2024-01-16T16:32:41.787Z,27.81
2024-01-16T16:35:11.087Z,27.92
2024-01-16T16:37:39.019Z,28.00
2024-01-16T16:40:07.781Z,28.18
2024-01-16T16:42:35.584Z,28.23
2024-01-16T16:45:04.654Z,27.99
2024-01-16T16:47:32.587Z,28.19
2024-01-16T16:50:00.866Z,27.91
2024-01-16T16:52:28.745Z,28.03
2024-01-16T16:54:56.950Z,28.06
2024-01-16T16:57:24.764Z,28.11
2024-01-16T16:59:54.193Z,28.24
2024-01-16T17:02:23.601Z,28.18
2024-01-16T17:04:51.769Z,28.12
2024-01-16T17:07:19.733Z,28.26
2024-01-16T17:09:47.853Z,28.30
2024-01-16T17:12:15.720Z,28.17
2024-01-16T17:14:43.629Z,28.14
2024-01-16T17:17:12.572Z,28.53
2024-01-16T17:19:41.976Z,28.30
2024-01-16T17:22:10.261Z,28.31
2024-01-16T17:24:38.336Z,28.42
2024-01-16T17:27:07.067Z,28.41
2024-01-16T17:29:35.122Z,28.33
2024-01-16T17:32:04.642Z,28.27
2024-01-16T17:34:32.519Z,28.39
2024-01-16T17:37:00.542Z,28.37
2024-01-16T17:39:29.175Z,28.39
2024-01-16T17:41:57.137Z,28.37
2024-01-16T17:44:25.042Z,28.42
2024-01-16T17:46:53.042Z,28.18
2024-01-16T17:49:21.253Z,28.38
2024-01-16T17:51:49.838Z,28.37
2024-01-16T17:54:17.797Z,28.22
2024-01-16T17:56:48.619Z,28.20
2024-01-16T17:59:17.408Z,28.18
2024-01-16T18:01:45.245Z,28.30
2024-01-16T18:04:14.560Z,28.24
2024-01-16T18:06:44.394Z,28.07
2024-01-16T18:09:12.609Z,28.21
2024-01-16T18:11:56.937Z,27.99
2024-01-16T18:14:25.612Z,28.05
2024-01-16T18:16:54.875Z,28.08
2024-01-16T18:19:26.068Z,28.20
2024-01-16T18:21:56.784Z,28.14
2024-01-16T18:24:24.782Z,28.02
2024-01-16T18:26:52.736Z,27.89
2024-01-16T18:29:23.371Z,27.81
2024-01-16T18:31:51.519Z,27.51
2024-01-16T18:34:22.200Z,27.42
2024-01-16T18:36:50.628Z,27.27
2024-01-16T18:39:21.167Z,27.20
2024-01-16T18:41:52.990Z,27.18
2024-01-16T18:44:21.730Z,27.06
2024-01-16T18:46:49.643Z,26.95
2024-01-16T18:49:18.052Z,26.93
2024-01-16T18:51:48.489Z,26.79
2024-01-16T18:54:17.239Z,26.84
2024-01-16T18:56:45.194Z,26.99
2024-01-16T18:59:13.107Z,26.90
2024-01-16T19:01:42.687Z,26.98
2024-01-16T19:04:14.135Z,27.08
2024-01-16T19:06:49.010Z,27.14
2024-01-16T19:09:19.073Z,27.13
2024-01-16T19:11:50.553Z,27.26
2024-01-16T19:14:18.508Z,27.03
2024-01-16T19:16:47.608Z,27.00
2024-01-16T19:19:15.742Z,26.99
2024-01-16T19:21:47.171Z,26.91
2024-01-16T19:24:16.965Z,27.01
2024-01-16T19:26:45.207Z,27.07
2024-01-16T19:29:13.974Z,26.93
2024-01-16T19:31:45.558Z,26.96
2024-01-16T19:34:13.829Z,27.11
2024-01-16T19:36:42.178Z,26.74
2024-01-16T19:39:16.124Z,26.99
2024-01-16T19:41:45.253Z,27.00
2024-01-16T19:44:13.330Z,26.81
2024-01-16T19:46:44.393Z,26.85
2024-01-16T19:49:12.352Z,26.97
2024-01-16T19:51:40.711Z,26.92
2024-01-16T19:54:09.337Z,26.79
2024-01-16T19:56:43.381Z,26.70
2024-01-16T19:59:11.895Z,26.66
2024-01-16T20:06:23.045Z,26.72
2024-01-16T20:08:53.185Z,26.68
2024-01-16T20:11:31.125Z,26.57
2024-01-16T20:13:59.745Z,26.72
2024-01-16T20:16:29.351Z,26.66
2024-01-16T20:18:57.743Z,26.74
2024-01-16T20:21:27.069Z,26.72
2024-01-16T20:23:55.392Z,26.71
2024-01-16T20:26:23.409Z,26.67
2024-01-16T20:28:51.252Z,26.67
2024-01-16T20:31:19.124Z,26.64
2024-01-16T20:33:52.919Z,26.39
2024-01-16T20:36:21.198Z,26.54
2024-01-16T20:38:50.252Z,26.44
2024-01-16T20:41:18.205Z,26.47
2024-01-16T20:43:46.202Z,26.28
2024-01-16T20:46:15.698Z,26.66
2024-01-16T20:48:43.750Z,26.37
2024-01-16T20:51:14.912Z,26.51
2024-01-16T20:53:42.820Z,26.56
2024-01-16T20:56:10.852Z,26.77
2024-01-16T20:58:39.781Z,26.58
2024-01-16T21:01:08.755Z,26.95
2024-01-16T21:03:36.876Z,26.99
2024-01-16T21:06:07.441Z,26.89
2024-01-16T21:08:37.259Z,26.89
2024-01-16T21:11:05.054Z,26.79
2024-01-16T21:13:32.775Z,27.07
2024-01-16T21:16:02.938Z,26.96
2024-01-16T21:18:33.108Z,27.04
2024-01-16T21:21:01.165Z,27.22
2024-01-16T21:23:30.070Z,27.07
2024-01-16T21:25:57.655Z,26.75
2024-01-16T21:28:25.261Z,26.95
2024-01-16T21:30:53.164Z,26.99
2024-01-16T21:33:20.696Z,27.26
2024-01-16T21:35:48.346Z,26.84
2024-01-16T21:38:15.988Z,27.07
2024-01-16T21:40:43.698Z,26.95
2024-01-16T21:43:11.201Z,26.70
2024-01-16T21:45:38.663Z,26.82
2024-01-16T21:48:06.445Z,27.01
2024-01-16T21:50:38.213Z,27.21
2024-01-16T21:53:06.261Z,26.94
2024-01-16T21:55:33.684Z,26.88
2024-01-16T21:58:01.184Z,26.95
2024-01-16T22:00:28.732Z,26.94
2024-01-16T22:03:00.394Z,27.18
2024-01-16T22:05:28.316Z,27.26
2024-01-16T22:07:55.933Z,27.12
2024-01-16T22:10:24.393Z,27.06
2024-01-16T22:12:51.912Z,27.04
2024-01-16T22:15:19.448Z,27.12
2024-01-16T22:17:48.199Z,27.33
2024-01-16T22:20:17.253Z,27.28
2024-01-16T22:22:45.176Z,27.39
2024-01-16T22:25:12.853Z,27.36
2024-01-16T22:27:41.253Z,27.32
2024-01-16T22:30:10.667Z,27.17
2024-01-16T22:32:39.463Z,27.30
2024-01-16T22:35:07.295Z,27.41
2024-01-16T22:37:34.980Z,27.43
2024-01-16T22:40:02.684Z,27.39
2024-01-16T22:42:31.196Z,27.19
2024-01-16T22:44:58.597Z,27.51
2024-01-16T22:47:26.256Z,27.46
2024-01-16T22:49:53.785Z,27.50
2024-01-16T22:52:22.138Z,27.49
2024-01-16T22:54:49.575Z,27.40
2024-01-16T22:57:17.925Z,27.53
2024-01-16T22:59:45.305Z,27.41
2024-01-16T23:02:13.182Z,27.53
2024-01-16T23:04:41.186Z,27.39
2024-01-16T23:07:08.720Z,27.36
2024-01-16T23:09:36.382Z,27.36
2024-01-16T23:12:04.261Z,27.14
2024-01-16T23:14:31.762Z,27.15
2024-01-16T23:16:59.155Z,26.71
2024-01-16T23:19:26.619Z,26.91
2024-01-16T23:21:54.103Z,26.87
2024-01-16T23:24:21.520Z,26.95
2024-01-16T23:26:49.085Z,26.95
2024-01-16T23:29:16.516Z,27.10
2024-01-16T23:31:44.087Z,27.17
2024-01-16T23:34:11.553Z,27.21
2024-01-16T23:36:39.018Z,26.90
2024-01-16T23:39:06.751Z,27.12
2024-01-16T23:41:34.294Z,27.31
2024-01-16T23:44:02.101Z,27.31
2024-01-16T23:46:29.535Z,27.02
2024-01-16T23:49:00.637Z,27.44
2024-01-16T23:51:28.605Z,27.27
2024-01-16T23:56:12.516Z,29.23
